sensor_id;sensor_type;location;lat;lon;timestamp;P1;durP1;ratioP1;P2;durP2;ratioP2
70153;SDS011;57519;51.494;-2.626;2023-03-01T00:01:51;4.80;;;4.38;;
70153;SDS011;57519;51.494;-2.626;2023-03-01T00:04:17;4.63;;;4.23;;
70153;SDS011;57519;51.494;-2.626;2023-03-01T00:06:42;5.10;;;3.90;;
70153;SDS011;57519;51.494;-2.626;2023-03-01T00:09:11;5.05;;;4.55;;
70153;SDS011;57519;51.494;-2.626;2023-03-01T00:11:37;5.22;;;4.30;;
70153;SDS011;57519;51.494;-2.626;2023-03-01T00:14:03;4.32;;;3.75;;
70153;SDS011;57519;51.494;-2.626;2023-03-01T00:16:35;5.20;;;4.68;;
70153;SDS011;57519;51.494;-2.626;2023-03-01T00:19:07;5.00;;;4.60;;
70153;SDS011;57519;51.494;-2.626;2023-03-01T00:21:37;13.80;;;6.95;;
70153;SDS011;57519;51.494;-2.626;2023-03-01T00:24:02;16.23;;;7.93;;
70153;SDS011;57519;51.494;-2.626;2023-03-01T00:26:28;4.57;;;4.13;;
70153;SDS011;57519;51.494;-2.626;2023-03-01T00:28:54;5.70;;;4.95;;
70153;SDS011;57519;51.494;-2.626;2023-03-01T00:31:23;4.45;;;4.05;;
70153;SDS011;57519;51.494;-2.626;2023-03-01T00:33:53;4.73;;;4.10;;
70153;SDS011;57519;51.494;-2.626;2023-03-01T00:36:23;4.97;;;4.53;;
70153;SDS011;57519;51.494;-2.626;2023-03-01T00:38:53;4.43;;;4.00;;
70153;SDS011;57519;51.494;-2.626;2023-03-01T00:41:22;4.70;;;3.90;;
70153;SDS011;57519;51.494;-2.626;2023-03-01T00:43:48;4.95;;;4.00;;
70153;SDS011;57519;51.494;-2.626;2023-03-01T00:46:16;4.22;;;3.08;;
70153;SDS011;57519;51.494;-2.626;2023-03-01T00:48:43;5.13;;;4.57;;
70153;SDS011;57519;51.494;-2.626;2023-03-01T00:51:11;4.13;;;3.73;;
70153;SDS011;57519;51.494;-2.626;2023-03-01T00:53:40;4.88;;;4.38;;
70153;SDS011;57519;51.494;-2.626;2023-03-01T00:56:06;4.70;;;4.25;;
70153;SDS011;57519;51.494;-2.626;2023-03-01T00:58:33;4.53;;;3.88;;
70153;SDS011;57519;51.494;-2.626;2023-03-01T01:00:59;4.90;;;4.40;;
70153;SDS011;57519;51.494;-2.626;2023-03-01T01:03:25;5.17;;;4.07;;
70153;SDS011;57519;51.494;-2.626;2023-03-01T01:05:51;4.68;;;4.28;;
70153;SDS011;57519;51.494;-2.626;2023-03-01T01:08:18;6.47;;;4.32;;
70153;SDS011;57519;51.494;-2.626;2023-03-01T01:10:45;4.80;;;4.37;;
70153;SDS011;57519;51.494;-2.626;2023-03-01T01:13:11;7.93;;;4.28;;
70153;SDS011;57519;51.494;-2.626;2023-03-01T01:15:37;4.30;;;3.90;;
70153;SDS011;57519;51.494;-2.626;2023-03-01T01:18:03;4.47;;;4.07;;
70153;SDS011;57519;51.494;-2.626;2023-03-01T01:20:29;4.80;;;3.90;;
70153;SDS011;57519;51.494;-2.626;2023-03-01T01:22:54;4.60;;;3.87;;
70153;SDS011;57519;51.494;-2.626;2023-03-01T01:25:20;4.43;;;3.85;;
70153;SDS011;57519;51.494;-2.626;2023-03-01T01:27:45;4.73;;;3.80;;
70153;SDS011;57519;51.494;-2.626;2023-03-01T01:30:11;4.17;;;3.77;;
70153;SDS011;57519;51.494;-2.626;2023-03-01T01:32:37;5.22;;;4.60;;
70153;SDS011;57519;51.494;-2.626;2023-03-01T01:35:03;4.93;;;4.20;;
70153;SDS011;57519;51.494;-2.626;2023-03-01T01:37:28;5.03;;;4.53;;
70153;SDS011;57519;51.494;-2.626;2023-03-01T01:39:58;5.13;;;4.60;;
70153;SDS011;57519;51.494;-2.626;2023-03-01T01:42:24;8.13;;;4.63;;
70153;SDS011;57519;51.494;-2.626;2023-03-01T01:45:15;5.60;;;4.32;;
70153;SDS011;57519;51.494;-2.626;2023-03-01T01:47:51;3.80;;;3.35;;
70153;SDS011;57519;51.494;-2.626;2023-03-01T01:50:19;5.90;;;4.18;;
70153;SDS011;57519;51.494;-2.626;2023-03-01T01:52:44;4.57;;;4.17;;
70153;SDS011;57519;51.494;-2.626;2023-03-01T01:55:16;4.70;;;4.25;;
70153;SDS011;57519;51.494;-2.626;2023-03-01T01:57:47;5.53;;;3.90;;
70153;SDS011;57519;51.494;-2.626;2023-03-01T02:00:16;4.97;;;4.00;;
70153;SDS011;57519;51.494;-2.626;2023-03-01T02:02:47;4.93;;;3.88;;
70153;SDS011;57519;51.494;-2.626;2023-03-01T02:07:45;4.43;;;4.03;;
70153;SDS011;57519;51.494;-2.626;2023-03-01T02:10:13;5.40;;;4.30;;
70153;SDS011;57519;51.494;-2.626;2023-03-01T02:12:38;4.90;;;4.03;;
70153;SDS011;57519;51.494;-2.626;2023-03-01T02:15:04;4.30;;;3.90;;
70153;SDS011;57519;51.494;-2.626;2023-03-01T02:17:30;4.40;;;3.90;;
70153;SDS011;57519;51.494;-2.626;2023-03-01T02:22:30;4.18;;;3.78;;
70153;SDS011;57519;51.494;-2.626;2023-03-01T02:27:52;4.88;;;4.15;;
70153;SDS011;57519;51.494;-2.626;2023-03-01T02:30:19;6.30;;;4.40;;
70153;SDS011;57519;51.494;-2.626;2023-03-01T02:32:47;4.47;;;3.90;;
70153;SDS011;57519;51.494;-2.626;2023-03-01T02:35:14;7.40;;;4.93;;
70153;SDS011;57519;51.494;-2.626;2023-03-01T02:37:41;7.32;;;5.38;;
70153;SDS011;57519;51.494;-2.626;2023-03-01T02:40:09;5.25;;;3.97;;
70153;SDS011;57519;51.494;-2.626;2023-03-01T02:42:45;4.32;;;3.92;;
70153;SDS011;57519;51.494;-2.626;2023-03-01T02:45:15;3.93;;;3.53;;
70153;SDS011;57519;51.494;-2.626;2023-03-01T02:47:41;6.25;;;5.30;;
70153;SDS011;57519;51.494;-2.626;2023-03-01T02:53:22;4.95;;;4.25;;
70153;SDS011;57519;51.494;-2.626;2023-03-01T02:55:56;4.90;;;4.05;;
70153;SDS011;57519;51.494;-2.626;2023-03-01T02:58:22;4.43;;;4.03;;
70153;SDS011;57519;51.494;-2.626;2023-03-01T03:00:47;6.73;;;4.27;;
70153;SDS011;57519;51.494;-2.626;2023-03-01T03:03:15;5.60;;;4.60;;
70153;SDS011;57519;51.494;-2.626;2023-03-01T03:05:42;5.30;;;4.50;;
70153;SDS011;57519;51.494;-2.626;2023-03-01T03:08:08;5.25;;;4.72;;
70153;SDS011;57519;51.494;-2.626;2023-03-01T03:10:35;4.78;;;4.22;;
70153;SDS011;57519;51.494;-2.626;2023-03-01T03:13:05;5.63;;;3.80;;
70153;SDS011;57519;51.494;-2.626;2023-03-01T03:15:35;4.85;;;4.35;;
70153;SDS011;57519;51.494;-2.626;2023-03-01T03:18:02;4.80;;;4.30;;
70153;SDS011;57519;51.494;-2.626;2023-03-01T03:20:29;4.10;;;3.70;;
70153;SDS011;57519;51.494;-2.626;2023-03-01T03:22:57;4.20;;;3.80;;
70153;SDS011;57519;51.494;-2.626;2023-03-01T03:25:23;4.20;;;3.80;;
70153;SDS011;57519;51.494;-2.626;2023-03-01T03:27:49;5.10;;;3.97;;
70153;SDS011;57519;51.494;-2.626;2023-03-01T03:30:21;5.07;;;4.10;;
70153;SDS011;57519;51.494;-2.626;2023-03-01T03:32:48;4.93;;;4.53;;
70153;SDS011;57519;51.494;-2.626;2023-03-01T03:37:46;5.10;;;4.30;;
70153;SDS011;57519;51.494;-2.626;2023-03-01T03:40:28;4.95;;;4.53;;
70153;SDS011;57519;51.494;-2.626;2023-03-01T03:42:57;4.65;;;4.22;;
70153;SDS011;57519;51.494;-2.626;2023-03-01T03:45:22;5.00;;;4.50;;
70153;SDS011;57519;51.494;-2.626;2023-03-01T03:47:47;4.87;;;4.47;;
70153;SDS011;57519;51.494;-2.626;2023-03-01T03:50:14;4.63;;;3.77;;
70153;SDS011;57519;51.494;-2.626;2023-03-01T03:52:41;5.88;;;4.60;;
70153;SDS011;57519;51.494;-2.626;2023-03-01T03:55:07;4.40;;;3.42;;
70153;SDS011;57519;51.494;-2.626;2023-03-01T03:57:34;4.82;;;4.28;;
70153;SDS011;57519;51.494;-2.626;2023-03-01T04:00:00;6.10;;;4.70;;
70153;SDS011;57519;51.494;-2.626;2023-03-01T04:02:25;4.87;;;4.40;;
70153;SDS011;57519;51.494;-2.626;2023-03-01T04:04:51;7.40;;;4.30;;
70153;SDS011;57519;51.494;-2.626;2023-03-01T04:07:16;5.47;;;4.43;;
70153;SDS011;57519;51.494;-2.626;2023-03-01T04:09:42;4.97;;;4.13;;
70153;SDS011;57519;51.494;-2.626;2023-03-01T04:12:09;4.82;;;4.40;;
70153;SDS011;57519;51.494;-2.626;2023-03-01T04:14:35;4.70;;;4.30;;
70153;SDS011;57519;51.494;-2.626;2023-03-01T04:17:01;5.88;;;3.92;;
70153;SDS011;57519;51.494;-2.626;2023-03-01T04:19:29;5.07;;;4.57;;
70153;SDS011;57519;51.494;-2.626;2023-03-01T04:22:03;6.77;;;4.57;;
70153;SDS011;57519;51.494;-2.626;2023-03-01T04:24:34;5.38;;;4.60;;
70153;SDS011;57519;51.494;-2.626;2023-03-01T04:27:00;6.53;;;4.60;;
70153;SDS011;57519;51.494;-2.626;2023-03-01T04:29:26;5.20;;;4.60;;
70153;SDS011;57519;51.494;-2.626;2023-03-01T04:31:51;5.10;;;4.45;;
70153;SDS011;57519;51.494;-2.626;2023-03-01T04:34:16;4.63;;;4.23;;
70153;SDS011;57519;51.494;-2.626;2023-03-01T04:36:42;5.00;;;4.50;;
70153;SDS011;57519;51.494;-2.626;2023-03-01T04:39:07;5.73;;;5.00;;
70153;SDS011;57519;51.494;-2.626;2023-03-01T04:41:37;4.97;;;4.47;;
70153;SDS011;57519;51.494;-2.626;2023-03-01T04:44:07;4.75;;;4.20;;
70153;SDS011;57519;51.494;-2.626;2023-03-01T04:46:34;5.97;;;4.53;;
70153;SDS011;57519;51.494;-2.626;2023-03-01T04:49:00;5.60;;;4.72;;
70153;SDS011;57519;51.494;-2.626;2023-03-01T04:51:26;5.43;;;4.90;;
70153;SDS011;57519;51.494;-2.626;2023-03-01T04:53:51;5.17;;;4.67;;
70153;SDS011;57519;51.494;-2.626;2023-03-01T04:56:16;7.25;;;5.15;;
70153;SDS011;57519;51.494;-2.626;2023-03-01T04:58:47;6.87;;;5.07;;
70153;SDS011;57519;51.494;-2.626;2023-03-01T05:01:14;6.70;;;5.45;;
70153;SDS011;57519;51.494;-2.626;2023-03-01T05:03:45;6.30;;;5.68;;
70153;SDS011;57519;51.494;-2.626;2023-03-01T05:06:12;6.10;;;5.30;;
70153;SDS011;57519;51.494;-2.626;2023-03-01T05:08:39;7.57;;;5.43;;
70153;SDS011;57519;51.494;-2.626;2023-03-01T05:11:06;5.45;;;4.90;;
70153;SDS011;57519;51.494;-2.626;2023-03-01T05:13:34;6.00;;;5.40;;
70153;SDS011;57519;51.494;-2.626;2023-03-01T05:16:00;5.30;;;4.80;;
70153;SDS011;57519;51.494;-2.626;2023-03-01T05:18:28;7.50;;;5.17;;
70153;SDS011;57519;51.494;-2.626;2023-03-01T05:20:55;6.32;;;5.25;;
70153;SDS011;57519;51.494;-2.626;2023-03-01T05:23:36;6.72;;;5.63;;
70153;SDS011;57519;51.494;-2.626;2023-03-01T05:26:02;6.60;;;5.60;;
70153;SDS011;57519;51.494;-2.626;2023-03-01T05:28:29;7.82;;;5.80;;
70153;SDS011;57519;51.494;-2.626;2023-03-01T05:30:56;7.33;;;5.60;;
70153;SDS011;57519;51.494;-2.626;2023-03-01T05:33:22;7.63;;;5.53;;
70153;SDS011;57519;51.494;-2.626;2023-03-01T05:35:48;7.13;;;5.15;;
70153;SDS011;57519;51.494;-2.626;2023-03-01T05:38:15;9.43;;;6.20;;
70153;SDS011;57519;51.494;-2.626;2023-03-01T05:40:41;6.72;;;5.40;;
70153;SDS011;57519;51.494;-2.626;2023-03-01T05:43:08;6.10;;;5.50;;
70153;SDS011;57519;51.494;-2.626;2023-03-01T05:45:35;6.60;;;5.30;;
70153;SDS011;57519;51.494;-2.626;2023-03-01T05:48:03;7.20;;;4.93;;
70153;SDS011;57519;51.494;-2.626;2023-03-01T05:50:31;8.13;;;5.28;;
70153;SDS011;57519;51.494;-2.626;2023-03-01T05:53:15;8.80;;;5.90;;
70153;SDS011;57519;51.494;-2.626;2023-03-01T05:55:43;9.33;;;5.87;;
70153;SDS011;57519;51.494;-2.626;2023-03-01T05:58:11;6.68;;;5.28;;
70153;SDS011;57519;51.494;-2.626;2023-03-01T06:00:42;6.60;;;5.40;;
70153;SDS011;57519;51.494;-2.626;2023-03-01T06:03:09;6.90;;;5.80;;
70153;SDS011;57519;51.494;-2.626;2023-03-01T06:05:36;8.40;;;5.93;;
70153;SDS011;57519;51.494;-2.626;2023-03-01T06:08:02;7.10;;;5.97;;
70153;SDS011;57519;51.494;-2.626;2023-03-01T06:10:28;10.60;;;6.60;;
70153;SDS011;57519;51.494;-2.626;2023-03-01T06:12:53;8.93;;;6.10;;
70153;SDS011;57519;51.494;-2.626;2023-03-01T06:15:19;6.55;;;5.18;;
70153;SDS011;57519;51.494;-2.626;2023-03-01T06:17:45;10.67;;;6.73;;
70153;SDS011;57519;51.494;-2.626;2023-03-01T06:20:15;8.95;;;6.07;;
70153;SDS011;57519;51.494;-2.626;2023-03-01T06:22:41;9.55;;;6.85;;
70153;SDS011;57519;51.494;-2.626;2023-03-01T06:25:09;11.07;;;6.93;;
70153;SDS011;57519;51.494;-2.626;2023-03-01T06:27:35;9.35;;;6.07;;
70153;SDS011;57519;51.494;-2.626;2023-03-01T06:30:01;8.43;;;5.72;;
70153;SDS011;57519;51.494;-2.626;2023-03-01T06:32:26;9.67;;;7.10;;
70153;SDS011;57519;51.494;-2.626;2023-03-01T06:34:52;10.32;;;6.25;;
70153;SDS011;57519;51.494;-2.626;2023-03-01T06:37:17;8.90;;;6.43;;
70153;SDS011;57519;51.494;-2.626;2023-03-01T06:39:42;13.17;;;6.47;;
70153;SDS011;57519;51.494;-2.626;2023-03-01T06:42:08;9.50;;;7.10;;
70153;SDS011;57519;51.494;-2.626;2023-03-01T06:44:35;9.00;;;6.53;;
70153;SDS011;57519;51.494;-2.626;2023-03-01T06:47:01;8.90;;;6.55;;
70153;SDS011;57519;51.494;-2.626;2023-03-01T06:49:26;10.53;;;5.77;;
70153;SDS011;57519;51.494;-2.626;2023-03-01T06:51:52;7.75;;;6.05;;
70153;SDS011;57519;51.494;-2.626;2023-03-01T06:54:17;6.63;;;5.50;;
70153;SDS011;57519;51.494;-2.626;2023-03-01T06:56:43;8.70;;;6.43;;
70153;SDS011;57519;51.494;-2.626;2023-03-01T06:59:12;7.78;;;5.68;;
70153;SDS011;57519;51.494;-2.626;2023-03-01T07:01:38;9.60;;;5.88;;
70153;SDS011;57519;51.494;-2.626;2023-03-01T07:04:04;9.97;;;6.40;;
70153;SDS011;57519;51.494;-2.626;2023-03-01T07:06:29;6.75;;;4.95;;
70153;SDS011;57519;51.494;-2.626;2023-03-01T07:08:55;7.63;;;5.80;;
70153;SDS011;57519;51.494;-2.626;2023-03-01T07:11:20;6.37;;;5.00;;
70153;SDS011;57519;51.494;-2.626;2023-03-01T07:13:46;7.40;;;6.05;;
70153;SDS011;57519;51.494;-2.626;2023-03-01T07:16:11;9.37;;;6.03;;
70153;SDS011;57519;51.494;-2.626;2023-03-01T07:18:37;8.27;;;5.80;;
70153;SDS011;57519;51.494;-2.626;2023-03-01T07:21:08;6.33;;;5.20;;
70153;SDS011;57519;51.494;-2.626;2023-03-01T07:23:37;8.95;;;5.90;;
70153;SDS011;57519;51.494;-2.626;2023-03-01T07:26:02;7.87;;;5.53;;
70153;SDS011;57519;51.494;-2.626;2023-03-01T07:28:28;7.45;;;5.43;;
70153;SDS011;57519;51.494;-2.626;2023-03-01T07:30:54;6.83;;;5.80;;
70153;SDS011;57519;51.494;-2.626;2023-03-01T07:33:20;7.78;;;5.60;;
70153;SDS011;57519;51.494;-2.626;2023-03-01T07:35:46;8.07;;;6.07;;
70153;SDS011;57519;51.494;-2.626;2023-03-01T07:38:11;9.13;;;5.70;;
70153;SDS011;57519;51.494;-2.626;2023-03-01T07:40:37;6.90;;;5.77;;
70153;SDS011;57519;51.494;-2.626;2023-03-01T07:43:02;7.60;;;5.80;;
70153;SDS011;57519;51.494;-2.626;2023-03-01T07:45:28;6.97;;;5.53;;
70153;SDS011;57519;51.494;-2.626;2023-03-01T07:47:54;9.18;;;5.85;;
70153;SDS011;57519;51.494;-2.626;2023-03-01T07:50:20;6.27;;;5.27;;
70153;SDS011;57519;51.494;-2.626;2023-03-01T07:52:48;6.95;;;4.78;;
70153;SDS011;57519;51.494;-2.626;2023-03-01T07:55:15;8.35;;;5.60;;
70153;SDS011;57519;51.494;-2.626;2023-03-01T07:57:41;7.93;;;5.22;;
70153;SDS011;57519;51.494;-2.626;2023-03-01T08:00:07;9.43;;;5.43;;
70153;SDS011;57519;51.494;-2.626;2023-03-01T08:02:36;9.55;;;5.75;;
70153;SDS011;57519;51.494;-2.626;2023-03-01T08:05:01;8.47;;;6.30;;
70153;SDS011;57519;51.494;-2.626;2023-03-01T08:07:27;8.47;;;6.30;;
70153;SDS011;57519;51.494;-2.626;2023-03-01T08:09:52;7.83;;;5.80;;
70153;SDS011;57519;51.494;-2.626;2023-03-01T08:12:18;6.20;;;5.40;;
70153;SDS011;57519;51.494;-2.626;2023-03-01T08:14:43;11.27;;;5.10;;
70153;SDS011;57519;51.494;-2.626;2023-03-01T08:17:09;7.50;;;6.13;;
70153;SDS011;57519;51.494;-2.626;2023-03-01T08:19:34;7.30;;;5.83;;
70153;SDS011;57519;51.494;-2.626;2023-03-01T08:22:03;6.37;;;5.30;;
70153;SDS011;57519;51.494;-2.626;2023-03-01T08:24:28;9.07;;;5.05;;
70153;SDS011;57519;51.494;-2.626;2023-03-01T08:26:54;9.13;;;5.70;;
70153;SDS011;57519;51.494;-2.626;2023-03-01T08:29:19;6.28;;;5.40;;
70153;SDS011;57519;51.494;-2.626;2023-03-01T08:31:45;7.07;;;6.13;;
70153;SDS011;57519;51.494;-2.626;2023-03-01T08:34:12;8.32;;;6.70;;
70153;SDS011;57519;51.494;-2.626;2023-03-01T08:36:40;11.98;;;6.43;;
70153;SDS011;57519;51.494;-2.626;2023-03-01T08:39:08;7.80;;;5.63;;
70153;SDS011;57519;51.494;-2.626;2023-03-01T08:41:35;9.60;;;6.18;;
70153;SDS011;57519;51.494;-2.626;2023-03-01T08:44:01;6.77;;;5.03;;
70153;SDS011;57519;51.494;-2.626;2023-03-01T08:46:34;7.80;;;6.03;;
70153;SDS011;57519;51.494;-2.626;2023-03-01T08:49:05;14.80;;;6.43;;
70153;SDS011;57519;51.494;-2.626;2023-03-01T08:51:35;9.02;;;6.00;;
70153;SDS011;57519;51.494;-2.626;2023-03-01T08:54:04;8.82;;;6.43;;
70153;SDS011;57519;51.494;-2.626;2023-03-01T08:56:30;10.02;;;6.40;;
70153;SDS011;57519;51.494;-2.626;2023-03-01T08:58:56;8.33;;;6.10;;
70153;SDS011;57519;51.494;-2.626;2023-03-01T09:01:21;9.02;;;6.47;;
70153;SDS011;57519;51.494;-2.626;2023-03-01T09:03:47;8.67;;;5.87;;
70153;SDS011;57519;51.494;-2.626;2023-03-01T09:06:13;8.57;;;5.70;;
70153;SDS011;57519;51.494;-2.626;2023-03-01T09:08:42;10.05;;;7.00;;
70153;SDS011;57519;51.494;-2.626;2023-03-01T09:11:10;6.50;;;5.72;;
70153;SDS011;57519;51.494;-2.626;2023-03-01T09:13:38;12.55;;;6.30;;
70153;SDS011;57519;51.494;-2.626;2023-03-01T09:16:04;8.93;;;5.97;;
70153;SDS011;57519;51.494;-2.626;2023-03-01T09:18:32;12.32;;;7.03;;
70153;SDS011;57519;51.494;-2.626;2023-03-01T09:21:14;9.07;;;6.47;;
70153;SDS011;57519;51.494;-2.626;2023-03-01T09:23:41;8.70;;;6.25;;
70153;SDS011;57519;51.494;-2.626;2023-03-01T09:26:20;6.83;;;5.73;;
70153;SDS011;57519;51.494;-2.626;2023-03-01T09:28:47;8.88;;;5.70;;
70153;SDS011;57519;51.494;-2.626;2023-03-01T09:31:15;7.57;;;6.15;;
70153;SDS011;57519;51.494;-2.626;2023-03-01T09:33:42;9.82;;;7.00;;
70153;SDS011;57519;51.494;-2.626;2023-03-01T09:36:14;6.93;;;5.75;;
70153;SDS011;57519;51.494;-2.626;2023-03-01T09:38:42;8.00;;;5.80;;
70153;SDS011;57519;51.494;-2.626;2023-03-01T09:41:18;7.35;;;5.45;;
70153;SDS011;57519;51.494;-2.626;2023-03-01T09:43:55;7.03;;;5.32;;
70153;SDS011;57519;51.494;-2.626;2023-03-01T09:46:28;6.68;;;5.63;;
70153;SDS011;57519;51.494;-2.626;2023-03-01T09:49:00;6.90;;;6.18;;
70153;SDS011;57519;51.494;-2.626;2023-03-01T09:51:32;6.10;;;5.50;;
70153;SDS011;57519;51.494;-2.626;2023-03-01T09:53:59;6.00;;;5.40;;
70153;SDS011;57519;51.494;-2.626;2023-03-01T09:56:30;6.97;;;5.90;;
70153;SDS011;57519;51.494;-2.626;2023-03-01T09:59:02;6.90;;;5.55;;
70153;SDS011;57519;51.494;-2.626;2023-03-01T10:04:23;6.23;;;4.73;;
70153;SDS011;57519;51.494;-2.626;2023-03-01T10:07:13;5.90;;;4.85;;
70153;SDS011;57519;51.494;-2.626;2023-03-01T10:09:53;7.53;;;5.25;;
70153;SDS011;57519;51.494;-2.626;2023-03-01T10:12:20;6.53;;;5.27;;
70153;SDS011;57519;51.494;-2.626;2023-03-01T10:14:59;7.43;;;5.75;;
70153;SDS011;57519;51.494;-2.626;2023-03-01T10:20:14;5.78;;;5.22;;
70153;SDS011;57519;51.494;-2.626;2023-03-01T10:22:45;7.07;;;5.32;;
70153;SDS011;57519;51.494;-2.626;2023-03-01T10:25:15;5.47;;;4.97;;
70153;SDS011;57519;51.494;-2.626;2023-03-01T10:27:51;5.18;;;4.68;;
70153;SDS011;57519;51.494;-2.626;2023-03-01T10:30:37;5.43;;;4.93;;
70153;SDS011;57519;51.494;-2.626;2023-03-01T10:33:15;6.22;;;5.50;;
70153;SDS011;57519;51.494;-2.626;2023-03-01T10:35:45;7.13;;;5.25;;
70153;SDS011;57519;51.494;-2.626;2023-03-01T10:38:13;6.10;;;5.50;;
70153;SDS011;57519;51.494;-2.626;2023-03-01T10:40:53;5.72;;;4.78;;
70153;SDS011;57519;51.494;-2.626;2023-03-01T10:43:25;6.67;;;4.67;;
70153;SDS011;57519;51.494;-2.626;2023-03-01T10:45:55;6.50;;;5.13;;
70153;SDS011;57519;51.494;-2.626;2023-03-01T10:48:22;6.27;;;5.07;;
70153;SDS011;57519;51.494;-2.626;2023-03-01T10:53:28;5.32;;;4.72;;
70153;SDS011;57519;51.494;-2.626;2023-03-01T10:56:09;6.03;;;4.60;;
70153;SDS011;57519;51.494;-2.626;2023-03-01T10:58:38;6.80;;;5.40;;
70153;SDS011;57519;51.494;-2.626;2023-03-01T11:01:06;7.80;;;4.97;;
70153;SDS011;57519;51.494;-2.626;2023-03-01T11:06:32;6.78;;;5.22;;
70153;SDS011;57519;51.494;-2.626;2023-03-01T11:09:14;5.65;;;4.97;;
70153;SDS011;57519;51.494;-2.626;2023-03-01T11:11:45;6.30;;;5.20;;
70153;SDS011;57519;51.494;-2.626;2023-03-01T11:14:18;6.73;;;4.73;;
70153;SDS011;57519;51.494;-2.626;2023-03-01T11:17:32;8.15;;;5.50;;
70153;SDS011;57519;51.494;-2.626;2023-03-01T11:22:38;8.25;;;5.35;;
70153;SDS011;57519;51.494;-2.626;2023-03-01T11:25:13;9.95;;;5.97;;
70153;SDS011;57519;51.494;-2.626;2023-03-01T11:27:41;8.47;;;4.87;;
70153;SDS011;57519;51.494;-2.626;2023-03-01T11:32:45;7.80;;;5.13;;
70153;SDS011;57519;51.494;-2.626;2023-03-01T11:35:19;5.43;;;4.88;;
70153;SDS011;57519;51.494;-2.626;2023-03-01T11:38:34;8.90;;;5.65;;
70153;SDS011;57519;51.494;-2.626;2023-03-01T11:41:01;5.77;;;4.43;;
70153;SDS011;57519;51.494;-2.626;2023-03-01T12:08:57;6.00;;;5.10;;
70153;SDS011;57519;51.494;-2.626;2023-03-01T12:17:06;7.03;;;5.05;;
70153;SDS011;57519;51.494;-2.626;2023-03-01T12:20:08;8.20;;;5.70;;
70153;SDS011;57519;51.494;-2.626;2023-03-01T12:38:37;9.98;;;6.05;;
70153;SDS011;57519;51.494;-2.626;2023-03-01T12:49:19;10.13;;;5.83;;
70153;SDS011;57519;51.494;-2.626;2023-03-01T12:51:54;7.47;;;5.90;;
70153;SDS011;57519;51.494;-2.626;2023-03-01T12:54:29;11.38;;;6.90;;
70153;SDS011;57519;51.494;-2.626;2023-03-01T12:56:58;7.20;;;5.78;;
70153;SDS011;57519;51.494;-2.626;2023-03-01T12:59:36;6.40;;;5.50;;
70153;SDS011;57519;51.494;-2.626;2023-03-01T13:02:16;8.57;;;5.23;;
70153;SDS011;57519;51.494;-2.626;2023-03-01T13:12:51;10.60;;;6.20;;
70153;SDS011;57519;51.494;-2.626;2023-03-01T13:15:27;9.40;;;6.00;;
70153;SDS011;57519;51.494;-2.626;2023-03-01T13:26:19;9.55;;;6.22;;
70153;SDS011;57519;51.494;-2.626;2023-03-01T13:31:10;6.93;;;5.93;;
70153;SDS011;57519;51.494;-2.626;2023-03-01T13:33:59;6.03;;;4.93;;
70153;SDS011;57519;51.494;-2.626;2023-03-01T13:49:41;8.57;;;5.67;;
70153;SDS011;57519;51.494;-2.626;2023-03-01T13:55:03;8.18;;;5.07;;
70153;SDS011;57519;51.494;-2.626;2023-03-01T13:57:35;8.93;;;6.07;;
70153;SDS011;57519;51.494;-2.626;2023-03-01T14:00:06;5.93;;;4.50;;
70153;SDS011;57519;51.494;-2.626;2023-03-01T14:02:32;8.40;;;5.27;;
70153;SDS011;57519;51.494;-2.626;2023-03-01T14:04:59;7.43;;;4.68;;
70153;SDS011;57519;51.494;-2.626;2023-03-01T14:07:26;6.38;;;4.75;;
70153;SDS011;57519;51.494;-2.626;2023-03-01T14:10:00;6.70;;;5.43;;
70153;SDS011;57519;51.494;-2.626;2023-03-01T14:17:52;7.63;;;5.60;;
70153;SDS011;57519;51.494;-2.626;2023-03-01T14:20:27;5.85;;;5.22;;
70153;SDS011;57519;51.494;-2.626;2023-03-01T14:22:56;7.75;;;6.13;;
70153;SDS011;57519;51.494;-2.626;2023-03-01T14:25:31;8.50;;;6.38;;
70153;SDS011;57519;51.494;-2.626;2023-03-01T14:30:34;9.63;;;5.85;;
70153;SDS011;57519;51.494;-2.626;2023-03-01T14:33:03;6.85;;;4.68;;
70153;SDS011;57519;51.494;-2.626;2023-03-01T14:35:33;7.57;;;5.25;;
70153;SDS011;57519;51.494;-2.626;2023-03-01T14:38:01;7.25;;;5.20;;
70153;SDS011;57519;51.494;-2.626;2023-03-01T14:42:58;7.18;;;5.43;;
70153;SDS011;57519;51.494;-2.626;2023-03-01T14:45:27;7.15;;;5.38;;
70153;SDS011;57519;51.494;-2.626;2023-03-01T14:47:55;7.25;;;6.32;;
70153;SDS011;57519;51.494;-2.626;2023-03-01T14:50:26;5.97;;;5.38;;
70153;SDS011;57519;51.494;-2.626;2023-03-01T14:52:54;6.90;;;5.83;;
70153;SDS011;57519;51.494;-2.626;2023-03-01T14:55:33;8.15;;;6.20;;
70153;SDS011;57519;51.494;-2.626;2023-03-01T14:58:05;7.22;;;5.80;;
70153;SDS011;57519;51.494;-2.626;2023-03-01T15:00:31;7.20;;;6.47;;
70153;SDS011;57519;51.494;-2.626;2023-03-01T15:03:00;6.63;;;5.78;;
70153;SDS011;57519;51.494;-2.626;2023-03-01T15:05:38;10.47;;;6.03;;
70153;SDS011;57519;51.494;-2.626;2023-03-01T15:08:05;6.78;;;5.70;;
70153;SDS011;57519;51.494;-2.626;2023-03-01T15:10:35;9.13;;;5.57;;
70153;SDS011;57519;51.494;-2.626;2023-03-01T15:13:23;8.00;;;5.70;;
70153;SDS011;57519;51.494;-2.626;2023-03-01T15:15:51;6.47;;;5.03;;
70153;SDS011;57519;51.494;-2.626;2023-03-01T15:18:26;11.00;;;6.17;;
70153;SDS011;57519;51.494;-2.626;2023-03-01T15:20:53;6.53;;;5.50;;
70153;SDS011;57519;51.494;-2.626;2023-03-01T15:23:26;6.32;;;5.57;;
70153;SDS011;57519;51.494;-2.626;2023-03-01T15:25:54;6.45;;;5.60;;
70153;SDS011;57519;51.494;-2.626;2023-03-01T15:28:30;8.52;;;5.78;;
70153;SDS011;57519;51.494;-2.626;2023-03-01T15:33:45;9.95;;;6.20;;
70153;SDS011;57519;51.494;-2.626;2023-03-01T15:38:57;7.72;;;6.00;;
70153;SDS011;57519;51.494;-2.626;2023-03-01T15:44:01;6.87;;;4.97;;
70153;SDS011;57519;51.494;-2.626;2023-03-01T15:46:44;8.48;;;5.72;;
70153;SDS011;57519;51.494;-2.626;2023-03-01T15:49:21;8.75;;;5.43;;
70153;SDS011;57519;51.494;-2.626;2023-03-01T15:52:10;8.00;;;6.22;;
70153;SDS011;57519;51.494;-2.626;2023-03-01T15:54:43;6.75;;;5.68;;
70153;SDS011;57519;51.494;-2.626;2023-03-01T15:57:13;8.03;;;5.80;;
70153;SDS011;57519;51.494;-2.626;2023-03-01T15:59:40;8.35;;;6.35;;
70153;SDS011;57519;51.494;-2.626;2023-03-01T16:02:09;8.35;;;6.03;;
70153;SDS011;57519;51.494;-2.626;2023-03-01T16:04:37;9.02;;;6.35;;
70153;SDS011;57519;51.494;-2.626;2023-03-01T16:07:03;8.53;;;6.47;;
70153;SDS011;57519;51.494;-2.626;2023-03-01T16:09:28;9.60;;;6.80;;
70153;SDS011;57519;51.494;-2.626;2023-03-01T16:11:54;7.97;;;6.73;;
70153;SDS011;57519;51.494;-2.626;2023-03-01T16:14:19;7.00;;;6.03;;
70153;SDS011;57519;51.494;-2.626;2023-03-01T16:16:46;12.00;;;7.10;;
70153;SDS011;57519;51.494;-2.626;2023-03-01T16:19:13;7.50;;;5.93;;
70153;SDS011;57519;51.494;-2.626;2023-03-01T16:21:38;7.23;;;5.70;;
70153;SDS011;57519;51.494;-2.626;2023-03-01T16:24:05;7.60;;;6.35;;
70153;SDS011;57519;51.494;-2.626;2023-03-01T16:26:31;12.27;;;6.70;;
70153;SDS011;57519;51.494;-2.626;2023-03-01T16:28:57;9.87;;;6.47;;
70153;SDS011;57519;51.494;-2.626;2023-03-01T16:31:23;9.18;;;6.07;;
70153;SDS011;57519;51.494;-2.626;2023-03-01T16:33:55;9.27;;;6.25;;
70153;SDS011;57519;51.494;-2.626;2023-03-01T16:36:22;12.73;;;6.25;;
70153;SDS011;57519;51.494;-2.626;2023-03-01T16:38:49;9.30;;;6.10;;
70153;SDS011;57519;51.494;-2.626;2023-03-01T16:41:16;9.90;;;6.10;;
70153;SDS011;57519;51.494;-2.626;2023-03-01T16:43:43;8.50;;;6.10;;
70153;SDS011;57519;51.494;-2.626;2023-03-01T16:48:55;9.27;;;5.80;;
70153;SDS011;57519;51.494;-2.626;2023-03-01T16:51:21;8.48;;;5.82;;
70153;SDS011;57519;51.494;-2.626;2023-03-01T16:53:48;7.07;;;6.00;;
70153;SDS011;57519;51.494;-2.626;2023-03-01T16:56:14;11.57;;;6.35;;
70153;SDS011;57519;51.494;-2.626;2023-03-01T16:58:41;11.57;;;6.60;;
70153;SDS011;57519;51.494;-2.626;2023-03-01T17:03:42;10.32;;;7.47;;
70153;SDS011;57519;51.494;-2.626;2023-03-01T17:06:10;8.73;;;6.05;;
70153;SDS011;57519;51.494;-2.626;2023-03-01T17:08:37;9.80;;;6.18;;